createdAt,value
2022-08-28T00:00:31.338Z,16.70
2022-08-28T00:02:59.198Z,16.70
2022-08-28T00:05:28.104Z,16.70
2022-08-28T00:07:55.115Z,16.70
2022-08-28T00:10:24.119Z,16.80
2022-08-28T00:12:52.893Z,16.70
2022-08-28T00:15:23.932Z,16.70
2022-08-28T00:17:50.847Z,16.70
2022-08-28T00:20:19.903Z,16.70
2022-08-28T00:22:48.525Z,16.70
2022-08-28T00:25:18.568Z,16.70
2022-08-28T00:28:04.928Z,16.70
2022-08-28T00:30:48.169Z,16.70
2022-08-28T00:33:37.527Z,16.70
2022-08-28T00:36:04.906Z,16.70
2022-08-28T00:38:32.973Z,16.70
2022-08-28T00:41:03.999Z,16.70
2022-08-28T00:43:38.432Z,16.70
2022-08-28T00:46:10.894Z,16.70
2022-08-28T00:48:38.562Z,16.60
2022-08-28T00:51:25.413Z,16.60
2022-08-28T00:53:58.427Z,16.60
2022-08-28T00:56:27.654Z,16.70
2022-08-28T00:58:56.810Z,16.70
2022-08-28T01:01:24.192Z,16.70
2022-08-28T01:03:51.072Z,16.70
2022-08-28T01:06:20.615Z,16.70
2022-08-28T01:08:50.615Z,16.80
2022-08-28T01:11:19.536Z,16.70
2022-08-28T01:13:48.590Z,16.70
2022-08-28T01:16:19.299Z,16.60
2022-08-28T01:18:47.960Z,16.70
2022-08-28T01:21:29.394Z,16.70
2022-08-28T01:24:02.366Z,16.60
2022-08-28T01:26:30.045Z,16.60
2022-08-28T01:28:58.572Z,16.50
2022-08-28T01:31:27.266Z,16.50
2022-08-28T01:33:54.678Z,16.50
2022-08-28T01:36:21.680Z,16.50
2022-08-28T01:38:52.948Z,16.40
2022-08-28T01:41:20.773Z,16.40
2022-08-28T01:43:47.629Z,16.40
2022-08-28T01:46:14.892Z,16.40
2022-08-28T01:48:43.780Z,16.40
2022-08-28T01:51:11.992Z,16.40
2022-08-28T01:53:39.609Z,16.40
2022-08-28T01:56:11.752Z,16.40
2022-08-28T01:58:39.946Z,16.40
2022-08-28T02:01:17.019Z,16.40
2022-08-28T02:03:44.135Z,16.40
2022-08-28T02:06:12.111Z,16.50
2022-08-28T02:08:38.904Z,16.50
2022-08-28T02:11:07.384Z,16.50
2022-08-28T02:13:36.124Z,16.50
2022-08-28T02:16:06.020Z,16.50
2022-08-28T02:18:33.004Z,16.50
2022-08-28T02:20:59.825Z,16.60
2022-08-28T02:23:26.774Z,16.60
2022-08-28T02:25:53.555Z,16.60
2022-08-28T02:28:20.469Z,16.60
2022-08-28T02:30:47.397Z,16.70
2022-08-28T02:33:14.843Z,16.70
2022-08-28T02:35:42.808Z,16.70
2022-08-28T02:38:10.422Z,16.80
2022-08-28T02:40:39.912Z,16.80
2022-08-28T02:43:07.075Z,16.80
2022-08-28T02:45:35.014Z,16.80
2022-08-28T02:48:02.644Z,16.80
2022-08-28T02:50:31.095Z,16.80
2022-08-28T02:52:58.261Z,16.90
2022-08-28T02:55:25.343Z,16.90
2022-08-28T02:57:52.804Z,16.90
2022-08-28T03:00:22.918Z,16.90
2022-08-28T03:02:50.900Z,16.90
2022-08-28T03:05:21.832Z,16.90
2022-08-28T03:07:49.768Z,16.90
2022-08-28T03:10:17.023Z,16.90
2022-08-28T03:12:43.821Z,16.90
2022-08-28T03:15:11.048Z,16.90
2022-08-28T03:17:38.129Z,16.90
2022-08-28T03:20:07.667Z,16.90
2022-08-28T03:22:53.132Z,16.90
2022-08-28T03:25:20.131Z,17.00
2022-08-28T03:27:46.900Z,16.90
2022-08-28T03:30:14.431Z,17.00
2022-08-28T03:32:41.436Z,17.00
2022-08-28T03:35:08.501Z,17.00
2022-08-28T03:37:35.784Z,17.00
2022-08-28T03:40:03.608Z,17.00
2022-08-28T03:42:31.094Z,17.00
2022-08-28T03:44:59.505Z,17.00
2022-08-28T03:47:28.293Z,17.00
2022-08-28T03:49:57.205Z,17.00
2022-08-28T03:52:24.277Z,17.00
2022-08-28T03:54:51.181Z,17.00
2022-08-28T03:57:22.206Z,17.00
2022-08-28T03:59:51.067Z,17.00
2022-08-28T04:02:20.432Z,17.00
2022-08-28T04:04:48.837Z,16.90
2022-08-28T04:07:16.488Z,16.90
2022-08-28T04:09:43.393Z,16.90
2022-08-28T04:12:10.724Z,17.00
2022-08-28T04:14:38.008Z,17.00
2022-08-28T04:17:06.050Z,17.00
2022-08-28T04:19:33.599Z,17.00
2022-08-28T04:22:00.572Z,17.00
2022-08-28T04:24:27.346Z,17.00
2022-08-28T04:26:54.368Z,17.00
2022-08-28T04:29:22.570Z,17.00
2022-08-28T04:31:49.827Z,17.00
2022-08-28T04:34:16.768Z,17.00
2022-08-28T04:36:43.795Z,17.00
2022-08-28T04:39:11.137Z,17.00
2022-08-28T04:41:38.823Z,17.00
2022-08-28T04:44:06.315Z,16.90
2022-08-28T04:46:33.200Z,16.90
2022-08-28T04:49:00.619Z,16.90
2022-08-28T04:51:28.354Z,16.90
2022-08-28T04:53:55.201Z,16.90
2022-08-28T04:56:21.988Z,16.90
2022-08-28T04:58:48.840Z,16.90
2022-08-28T05:01:19.036Z,16.90
2022-08-28T05:03:47.928Z,16.90
2022-08-28T05:06:16.240Z,16.90
2022-08-28T05:08:43.563Z,16.90
2022-08-28T05:11:33.347Z,16.90
2022-08-28T05:14:07.029Z,16.90
2022-08-28T05:16:40.140Z,16.90
2022-08-28T05:19:06.963Z,16.90
2022-08-28T05:21:33.761Z,16.90
2022-08-28T05:24:00.620Z,16.90
2022-08-28T05:26:29.698Z,16.90
2022-08-28T05:28:58.373Z,16.90
2022-08-28T05:31:26.997Z,17.00
2022-08-28T05:33:54.145Z,17.00
2022-08-28T05:36:25.858Z,16.90
2022-08-28T05:38:59.930Z,17.00
2022-08-28T05:41:30.158Z,17.00
2022-08-28T05:44:03.526Z,17.00
2022-08-28T05:46:30.991Z,17.00
2022-08-28T05:49:00.153Z,17.00
2022-08-28T05:51:28.095Z,17.10
2022-08-28T05:53:57.591Z,17.10
2022-08-28T05:56:29.784Z,17.10
2022-08-28T05:59:00.803Z,17.10
2022-08-28T06:01:33.414Z,17.10
2022-08-28T06:04:01.314Z,17.20
2022-08-28T06:06:30.335Z,17.20
2022-08-28T06:08:59.717Z,17.20
2022-08-28T06:11:31.223Z,17.20
2022-08-28T06:14:03.198Z,17.20
2022-08-28T06:16:31.865Z,17.10
2022-08-28T06:18:59.230Z,17.10
2022-08-28T06:21:26.211Z,17.20
2022-08-28T06:23:53.257Z,17.20
2022-08-28T06:26:20.095Z,17.30
2022-08-28T06:28:46.836Z,17.20
2022-08-28T06:31:24.723Z,17.20
2022-08-28T06:33:57.312Z,17.30
2022-08-28T06:36:27.497Z,17.20
2022-08-28T06:38:58.021Z,17.30
2022-08-28T06:41:26.526Z,17.30
2022-08-28T06:43:54.099Z,17.30
2022-08-28T06:46:21.919Z,17.30
2022-08-28T06:48:48.892Z,17.30
2022-08-28T06:51:15.667Z,17.40
2022-08-28T06:53:45.629Z,17.40
2022-08-28T06:56:25.389Z,17.50
2022-08-28T06:58:54.759Z,17.40
2022-08-28T07:01:29.565Z,17.40
2022-08-28T07:04:03.998Z,17.50
2022-08-28T07:06:38.418Z,17.50
2022-08-28T07:09:07.694Z,17.60
2022-08-28T07:11:35.668Z,17.70
2022-08-28T07:14:03.044Z,17.70
2022-08-28T07:16:34.198Z,17.80
2022-08-28T07:19:04.722Z,17.70
2022-08-28T07:21:38.715Z,17.70
2022-08-28T07:24:07.318Z,17.70
2022-08-28T07:26:35.708Z,17.70
2022-08-28T07:29:10.035Z,17.70
2022-08-28T07:31:43.565Z,17.80
2022-08-28T07:34:11.597Z,17.80
2022-08-28T07:36:39.681Z,17.90
2022-08-28T07:39:07.933Z,18.10
2022-08-28T07:41:39.155Z,18.30
2022-08-28T07:44:26.450Z,18.50
2022-08-28T07:46:58.069Z,18.70
2022-08-28T07:49:25.569Z,19.00
2022-08-28T07:51:54.238Z,19.10
2022-08-28T07:54:22.187Z,19.00
2022-08-28T07:56:49.384Z,19.10
2022-08-28T07:59:19.202Z,19.10
2022-08-28T08:01:48.416Z,19.10
2022-08-28T08:04:16.317Z,19.20
2022-08-28T08:06:44.437Z,19.20
2022-08-28T08:09:14.984Z,19.40
2022-08-28T08:11:42.706Z,19.50
2022-08-28T08:14:10.105Z,19.50
2022-08-28T08:16:40.631Z,19.70
2022-08-28T08:19:10.194Z,19.80
2022-08-28T08:21:38.065Z,19.80
2022-08-28T08:24:05.524Z,19.90
2022-08-28T08:26:33.152Z,20.00
2022-08-28T08:29:00.729Z,20.00
2022-08-28T08:31:30.247Z,20.10
2022-08-28T08:34:01.460Z,20.10
2022-08-28T08:36:29.490Z,20.30
2022-08-28T08:38:59.584Z,20.40
2022-08-28T08:41:30.277Z,20.60
2022-08-28T08:44:06.986Z,20.50
2022-08-28T08:46:45.855Z,20.40
2022-08-28T08:49:19.688Z,20.40
2022-08-28T08:52:16.297Z,20.40
2022-08-28T08:54:46.977Z,20.50
2022-08-28T08:57:15.524Z,20.90
2022-08-28T08:59:42.413Z,20.90
2022-08-28T09:02:22.212Z,20.90
2022-08-28T09:05:05.256Z,20.60
2022-08-28T09:07:41.101Z,20.50
2022-08-28T09:10:15.581Z,20.40
2022-08-28T09:13:05.302Z,20.80
2022-08-28T09:15:42.647Z,21.50
2022-08-28T09:18:26.207Z,22.00
2022-08-28T09:20:55.967Z,22.20
2022-08-28T09:23:24.826Z,22.80
2022-08-28T09:25:56.673Z,23.10
2022-08-28T09:28:38.999Z,22.90
2022-08-28T09:31:13.468Z,22.90
2022-08-28T09:33:45.218Z,22.90
2022-08-28T09:36:24.351Z,22.80
2022-08-28T09:39:12.805Z,22.60
2022-08-28T09:42:07.315Z,23.00
2022-08-28T09:44:46.141Z,23.40
2022-08-28T09:47:46.492Z,23.20
2022-08-28T09:50:34.112Z,23.10
2022-08-28T09:53:10.013Z,22.80
2022-08-28T09:55:49.277Z,22.50
2022-08-28T09:58:18.628Z,22.30
2022-08-28T10:00:57.624Z,22.20
2022-08-28T10:03:36.158Z,22.20
2022-08-28T10:06:08.056Z,22.10
2022-08-28T10:09:05.320Z,22.10
2022-08-28T10:11:44.308Z,22.30
2022-08-28T10:14:35.347Z,23.10
2022-08-28T10:17:04.837Z,23.90
2022-08-28T10:20:09.488Z,24.20
2022-08-28T10:22:51.375Z,24.90
2022-08-28T10:25:35.798Z,24.50
2022-08-28T10:28:31.633Z,24.10
2022-08-28T10:31:31.632Z,24.10
2022-08-28T10:34:28.713Z,23.70
2022-08-28T10:37:31.833Z,24.20
2022-08-28T10:40:04.527Z,24.20
2022-08-28T10:42:35.965Z,24.20
2022-08-28T10:45:19.893Z,24.90
2022-08-28T10:47:51.861Z,25.00
2022-08-28T10:50:33.796Z,25.30
2022-08-28T10:53:05.544Z,25.40
2022-08-28T10:55:48.837Z,25.20
2022-08-28T10:58:23.843Z,24.70
2022-08-28T11:00:55.319Z,24.60
2022-08-28T11:03:34.508Z,24.20
2022-08-28T11:06:36.260Z,23.80
2022-08-28T11:09:25.096Z,23.80
2022-08-28T11:12:05.639Z,24.30
2022-08-28T11:14:47.562Z,24.60
2022-08-28T11:17:30.449Z,25.40
2022-08-28T11:20:06.304Z,26.10
2022-08-28T11:23:07.692Z,26.20
2022-08-28T11:25:41.773Z,25.50
2022-08-28T11:28:17.361Z,24.70
2022-08-28T11:30:47.301Z,24.50
2022-08-28T11:33:39.082Z,24.20
2022-08-28T11:36:19.616Z,23.80
2022-08-28T11:38:46.858Z,24.20
2022-08-28T11:41:30.351Z,25.40
2022-08-28T11:44:09.401Z,26.30
2022-08-28T11:46:47.877Z,27.10
2022-08-28T11:49:24.536Z,27.80
2022-08-28T11:52:19.012Z,27.90
2022-08-28T11:55:09.825Z,26.80
2022-08-28T12:00:38.295Z,27.00
2022-08-28T12:03:24.264Z,27.00
2022-08-28T12:05:54.800Z,27.70
2022-08-28T12:09:01.781Z,27.20
2022-08-28T12:11:40.526Z,26.10
2022-08-28T12:14:30.020Z,25.50
2022-08-28T12:16:59.482Z,25.00
2022-08-28T12:19:55.513Z,24.70
2022-08-28T12:22:26.565Z,24.40
2022-08-28T12:24:59.510Z,24.30
2022-08-28T12:27:26.936Z,24.40
2022-08-28T12:29:59.980Z,24.40
2022-08-28T12:32:38.068Z,24.60
2022-08-28T12:35:17.067Z,24.60
2022-08-28T12:38:01.373Z,24.40
2022-08-28T12:40:50.187Z,25.10
2022-08-28T12:43:45.659Z,25.90
2022-08-28T12:46:26.872Z,25.50
2022-08-28T12:49:02.283Z,25.40
2022-08-28T12:51:32.033Z,25.00
2022-08-28T12:54:02.101Z,24.80
2022-08-28T12:56:34.042Z,24.90
2022-08-28T12:59:32.372Z,25.00
2022-08-28T13:02:27.433Z,25.90
2022-08-28T13:05:02.867Z,26.90
2022-08-28T13:07:32.820Z,26.90
2022-08-28T13:10:22.551Z,26.90
2022-08-28T13:13:06.451Z,27.30
2022-08-28T13:15:46.774Z,27.60
2022-08-28T13:19:10.908Z,27.90
2022-08-28T13:22:00.543Z,27.30
2022-08-28T13:24:27.471Z,27.80
2022-08-28T13:27:16.795Z,28.40
2022-08-28T13:29:55.672Z,28.10
2022-08-28T13:32:27.410Z,28.10
2022-08-28T13:35:06.366Z,28.20
2022-08-28T13:37:46.850Z,27.40
2022-08-28T13:40:45.818Z,27.00
2022-08-28T13:43:12.507Z,26.60
2022-08-28T13:45:43.940Z,26.20
2022-08-28T13:48:13.902Z,25.80
2022-08-28T13:50:46.565Z,25.20
2022-08-28T13:53:15.034Z,25.50
2022-08-28T13:55:42.039Z,26.00
2022-08-28T13:58:08.875Z,26.00
2022-08-28T14:00:41.103Z,26.10
2022-08-28T14:03:26.429Z,26.10
2022-08-28T14:05:54.299Z,26.00
2022-08-28T14:08:21.895Z,25.40
2022-08-28T14:10:48.988Z,25.30
2022-08-28T14:13:15.847Z,25.30
2022-08-28T14:15:42.729Z,25.20
2022-08-28T14:18:09.496Z,25.30
2022-08-28T14:20:38.657Z,25.30
2022-08-28T14:23:05.545Z,25.90
2022-08-28T14:25:37.110Z,26.30
2022-08-28T14:28:05.919Z,26.60
2022-08-28T14:30:32.728Z,26.80
2022-08-28T14:32:59.505Z,26.50
2022-08-28T14:35:26.674Z,26.60
2022-08-28T14:37:53.462Z,26.00
2022-08-28T14:40:20.634Z,26.10
2022-08-28T14:42:47.651Z,26.50
2022-08-28T14:45:14.535Z,26.20
2022-08-28T14:47:41.441Z,26.00
2022-08-28T14:50:08.749Z,25.50
2022-08-28T14:52:35.735Z,25.40
2022-08-28T14:55:02.570Z,25.40
2022-08-28T14:57:29.420Z,25.60
2022-08-28T14:59:56.212Z,25.80
2022-08-28T15:02:23.434Z,25.50
2022-08-28T15:04:50.222Z,25.30
2022-08-28T15:07:17.082Z,25.20
2022-08-28T15:09:43.850Z,25.00
2022-08-28T15:12:11.434Z,25.00
2022-08-28T15:14:38.397Z,24.70
2022-08-28T15:17:05.931Z,24.40
2022-08-28T15:19:33.234Z,24.10
2022-08-28T15:22:00.929Z,23.90
2022-08-28T15:24:31.396Z,23.80
2022-08-28T15:26:59.684Z,23.60
2022-08-28T15:29:28.237Z,23.50
2022-08-28T15:31:55.445Z,23.70
2022-08-28T15:34:28.133Z,23.60
2022-08-28T15:36:56.303Z,23.50
2022-08-28T15:39:45.945Z,23.60
2022-08-28T15:42:13.246Z,23.70
2022-08-28T15:44:40.111Z,24.00
2022-08-28T15:47:07.942Z,24.00
2022-08-28T15:49:38.848Z,24.00
2022-08-28T15:52:13.846Z,23.90
2022-08-28T15:54:41.517Z,23.90
2022-08-28T15:57:08.365Z,23.70
2022-08-28T15:59:48.914Z,23.70
2022-08-28T16:02:23.071Z,23.50
2022-08-28T16:04:50.563Z,23.60
2022-08-28T16:07:18.424Z,23.40
2022-08-28T16:09:45.311Z,23.50
2022-08-28T16:12:12.094Z,23.20
2022-08-28T16:14:38.960Z,23.10
2022-08-28T16:17:11.063Z,23.00
2022-08-28T16:19:39.930Z,22.90
2022-08-28T16:22:07.845Z,23.00
2022-08-28T16:24:35.071Z,22.80
2022-08-28T16:27:01.851Z,22.80
2022-08-28T16:29:28.652Z,22.70
2022-08-28T16:31:56.672Z,22.80
2022-08-28T16:34:27.063Z,22.80
2022-08-28T16:36:56.273Z,22.80
2022-08-28T16:39:23.062Z,22.70
2022-08-28T16:41:50.291Z,22.70
2022-08-28T16:44:22.147Z,22.60
2022-08-28T16:46:49.331Z,22.60
2022-08-28T16:49:16.372Z,22.50
2022-08-28T16:51:43.208Z,22.40
2022-08-28T16:54:10.100Z,22.30
2022-08-28T16:56:36.912Z,22.20
2022-08-28T16:59:04.603Z,22.20
2022-08-28T17:01:40.133Z,22.20
2022-08-28T17:04:09.800Z,22.10
2022-08-28T17:06:36.786Z,22.00
2022-08-28T17:09:04.165Z,22.00
2022-08-28T17:11:31.092Z,21.90
2022-08-28T17:13:58.986Z,21.80
2022-08-28T17:16:31.397Z,21.70
2022-08-28T17:18:59.285Z,21.70
2022-08-28T17:21:44.660Z,21.60
2022-08-28T17:24:14.841Z,21.60
2022-08-28T17:26:43.663Z,21.50
2022-08-28T17:29:10.955Z,21.50
2022-08-28T17:31:38.238Z,21.50
2022-08-28T17:34:07.235Z,21.50
2022-08-28T17:36:35.705Z,21.50
2022-08-28T17:39:05.837Z,21.40
2022-08-28T17:41:33.488Z,21.30
2022-08-28T17:44:01.379Z,21.10
2022-08-28T17:46:29.195Z,21.10
2022-08-28T17:48:57.660Z,20.90
2022-08-28T17:51:33.804Z,20.80
2022-08-28T17:54:18.594Z,20.60
2022-08-28T17:56:46.307Z,20.50
2022-08-28T17:59:14.179Z,20.30
2022-08-28T18:01:42.066Z,20.20
2022-08-28T18:04:09.202Z,20.00
2022-08-28T18:06:36.539Z,19.90
2022-08-28T18:09:04.456Z,19.80
2022-08-28T18:11:31.487Z,19.70
2022-08-28T18:13:59.731Z,19.60
2022-08-28T18:16:31.113Z,19.60
2022-08-28T18:18:59.741Z,19.50
2022-08-28T18:21:26.995Z,19.30
2022-08-28T18:23:53.999Z,19.20
2022-08-28T18:26:20.929Z,19.20
2022-08-28T18:28:48.251Z,19.10
2022-08-28T18:31:15.187Z,19.00
2022-08-28T18:33:42.068Z,19.00
2022-08-28T18:36:13.916Z,18.90
2022-08-28T18:38:41.855Z,18.80
2022-08-28T18:41:10.029Z,18.60
2022-08-28T18:43:37.108Z,18.60
2022-08-28T18:46:05.391Z,18.50
2022-08-28T18:48:32.375Z,18.30
2022-08-28T18:50:59.216Z,18.30
2022-08-28T18:53:26.537Z,18.20
2022-08-28T18:55:55.097Z,18.10
2022-08-28T18:58:23.249Z,17.90
2022-08-28T19:00:50.151Z,17.90
2022-08-28T19:03:17.430Z,17.80
2022-08-28T19:05:44.365Z,17.80
2022-08-28T19:08:11.448Z,17.70
2022-08-28T19:10:38.428Z,17.70
2022-08-28T19:13:06.628Z,17.60
2022-08-28T19:15:35.705Z,17.60
2022-08-28T19:18:04.167Z,17.50
2022-08-28T19:20:31.739Z,17.40
2022-08-28T19:22:59.212Z,17.30
2022-08-28T19:25:29.366Z,17.20
2022-08-28T19:28:01.512Z,17.20
2022-08-28T19:30:32.834Z,17.10
2022-08-28T19:33:01.559Z,17.00
2022-08-28T19:35:28.322Z,16.80
2022-08-28T19:37:55.369Z,16.80
2022-08-28T19:40:22.794Z,16.80
2022-08-28T19:42:50.090Z,16.70
2022-08-28T19:45:17.843Z,16.70
2022-08-28T19:47:45.379Z,16.70
2022-08-28T19:50:14.543Z,16.60
2022-08-28T19:52:43.221Z,16.50
2022-08-28T19:55:18.279Z,16.50
2022-08-28T19:57:46.823Z,16.50
2022-08-28T20:00:17.678Z,16.50
2022-08-28T20:02:45.445Z,16.40
2022-08-28T20:05:12.561Z,16.40
2022-08-28T20:07:39.480Z,16.30
2022-08-28T20:10:07.402Z,16.20
2022-08-28T20:12:34.619Z,16.20
2022-08-28T20:15:03.698Z,16.20
2022-08-28T20:17:30.766Z,16.10
2022-08-28T20:20:02.434Z,16.10
2022-08-28T20:22:29.771Z,16.00
2022-08-28T20:24:56.601Z,15.90
2022-08-28T20:27:23.700Z,15.90
2022-08-28T20:29:50.490Z,15.80
2022-08-28T20:32:17.348Z,15.80
2022-08-28T20:34:44.692Z,15.70
2022-08-28T20:37:11.558Z,15.70
2022-08-28T20:39:41.491Z,15.60
2022-08-28T20:42:09.747Z,15.50
2022-08-28T20:44:36.537Z,15.50
2022-08-28T20:47:03.992Z,15.50
2022-08-28T20:49:30.813Z,15.50
2022-08-28T20:51:58.795Z,15.50
2022-08-28T20:54:29.510Z,15.40
2022-08-28T20:56:58.375Z,15.40
2022-08-28T20:59:28.845Z,15.30
2022-08-28T21:02:26.433Z,15.20
2022-08-28T21:04:53.796Z,15.20
2022-08-28T21:07:22.650Z,15.10
2022-08-28T21:10:05.828Z,15.10
2022-08-28T21:12:36.488Z,15.10
2022-08-28T21:15:05.064Z,15.10
2022-08-28T21:17:32.075Z,15.00
2022-08-28T21:20:01.774Z,15.00
2022-08-28T21:22:31.515Z,15.00
2022-08-28T21:24:58.782Z,14.90
2022-08-28T21:27:25.630Z,14.90
2022-08-28T21:29:55.929Z,14.90
2022-08-28T21:32:22.821Z,14.90
2022-08-28T21:34:49.616Z,14.80
2022-08-28T21:37:16.390Z,14.70
2022-08-28T21:39:43.211Z,14.70
2022-08-28T21:42:10.408Z,14.70
2022-08-28T21:44:38.555Z,14.60
2022-08-28T21:47:05.961Z,14.60
2022-08-28T21:49:32.756Z,14.60
2022-08-28T21:52:03.076Z,14.50
2022-08-28T21:54:30.743Z,14.50
2022-08-28T21:56:58.913Z,14.50
2022-08-28T21:59:28.482Z,14.40
2022-08-28T22:02:01.277Z,14.40
2022-08-28T22:04:28.257Z,14.30
2022-08-28T22:06:55.016Z,14.30
2022-08-28T22:09:21.912Z,14.30
2022-08-28T22:11:48.683Z,14.30
2022-08-28T22:14:15.520Z,14.30
2022-08-28T22:16:42.634Z,14.20
2022-08-28T22:19:09.441Z,14.20
2022-08-28T22:21:55.042Z,14.10
2022-08-28T22:24:21.857Z,14.10
2022-08-28T22:26:48.650Z,14.00
2022-08-28T22:29:15.491Z,14.00
2022-08-28T22:31:45.641Z,14.00
2022-08-28T22:34:14.130Z,14.00
2022-08-28T22:36:40.949Z,13.90
2022-08-28T22:39:07.727Z,13.90
2022-08-28T22:41:37.479Z,13.80
2022-08-28T22:44:04.702Z,13.80
2022-08-28T22:46:31.450Z,13.80
2022-08-28T22:48:59.265Z,13.80
2022-08-28T22:51:26.088Z,13.70
2022-08-28T22:53:52.939Z,13.70
2022-08-28T22:56:19.920Z,13.70
2022-08-28T22:58:46.823Z,13.70
2022-08-28T23:01:17.634Z,13.60
2022-08-28T23:03:45.256Z,13.60
2022-08-28T23:06:13.729Z,13.60
2022-08-28T23:08:41.196Z,13.60
2022-08-28T23:11:08.939Z,13.50
2022-08-28T23:13:36.090Z,13.50
2022-08-28T23:16:03.272Z,13.50
2022-08-28T23:18:41.545Z,13.50
2022-08-28T23:21:19.381Z,13.40
2022-08-28T23:23:46.637Z,13.40
2022-08-28T23:26:15.072Z,13.40
2022-08-28T23:28:42.573Z,13.40
2022-08-28T23:31:10.093Z,13.30
2022-08-28T23:33:36.973Z,13.20
2022-08-28T23:36:04.370Z,13.20
2022-08-28T23:38:31.179Z,13.20
2022-08-28T23:40:58.593Z,13.20
2022-08-28T23:43:25.383Z,13.20
2022-08-28T23:45:52.780Z,13.10
2022-08-28T23:48:20.705Z,13.10
2022-08-28T23:50:47.823Z,13.10
2022-08-28T23:53:14.766Z,13.00
2022-08-28T23:55:44.236Z,13.00
2022-08-28T23:58:11.212Z,12.90
